Time;durP1;ratioP1;P1;durP2;ratioP2;P2;SDS_P1;SDS_P2;PMS_P1;PMS_P2;Temp;Humidity;BMP_temperature;BMP_pressure;BME280_temperature;BME280_humidity;BME280_pressure;Samples;Min_cycle;Max_cycle;Signal;HPM_P1;HPM_P2
2023/12/31 00:00:40;;;;;;;12.87;4.60;;;6.40;99.90;;;;;;5021368;28;20442;-51
2023/12/31 00:03:06;;;;;;;18.83;7.33;;;6.30;99.90;;;;;;5021252;28;20198;-51
2023/12/31 00:05:33;;;;;;;20.85;8.30;;;6.40;99.90;;;;;;5019972;28;20924;-51
2023/12/31 00:07:59;;;;;;;20.03;7.80;;;6.40;99.90;;;;;;5016735;28;20230;-51
2023/12/31 00:10:24;;;;;;;18.33;7.70;;;6.30;99.90;;;;;;5020208;28;20805;-52
2023/12/31 00:12:50;;;;;;;16.33;7.33;;;6.20;99.90;;;;;;5024542;28;20483;-51
2023/12/31 00:15:16;;;;;;;17.63;7.40;;;6.20;1.00;;;;;;5017834;28;20188;-51
2023/12/31 00:17:41;;;;;;;19.37;8.47;;;6.20;1.00;;;;;;5022914;28;20203;-51
2023/12/31 00:20:07;;;;;;;16.97;8.10;;;6.20;1.00;;;;;;5016820;28;20190;-52
2023/12/31 00:22:33;;;;;;;19.13;6.87;;;6.10;1.00;;;;;;5024250;28;20259;-51
2023/12/31 00:24:58;;;;;;;27.87;7.23;;;6.00;1.00;;;;;;5022397;28;20439;-51
2023/12/31 00:27:24;;;;;;;22.53;6.33;;;6.00;99.90;;;;;;5024898;28;20237;-51
2023/12/31 00:29:49;;;;;;;17.27;7.23;;;6.00;1.00;;;;;;5025581;28;20554;-51
2023/12/31 00:32:16;;;;;;;15.07;6.90;;;6.00;1.00;;;;;;5019128;28;20664;-51
2023/12/31 00:34:42;;;;;;;13.73;6.00;;;6.00;99.90;;;;;;5024506;28;20266;-51
2023/12/31 00:37:07;;;;;;;12.50;6.57;;;6.00;99.90;;;;;;5020087;28;20514;-51
2023/12/31 00:39:33;;;;;;;18.97;7.00;;;6.10;1.00;;;;;;5024358;28;20621;-51
2023/12/31 00:41:58;;;;;;;13.47;6.63;;;6.00;52.30;;;;;;5017520;28;20311;-51
2023/12/31 00:44:24;;;;;;;17.40;6.93;;;6.00;99.90;;;;;;5022758;28;20187;-51
2023/12/31 00:46:50;;;;;;;17.17;5.80;;;6.00;99.90;;;;;;5020221;28;20191;-50
2023/12/31 00:49:16;;;;;;;12.93;6.00;;;6.10;1.00;;;;;;5018280;28;20183;-51
2023/12/31 00:51:43;;;;;;;15.20;6.93;;;6.10;99.90;;;;;;5019354;28;20485;-51
2023/12/31 00:54:08;;;;;;;19.00;7.00;;;6.00;79.60;;;;;;5013871;28;20435;-51
2023/12/31 00:56:34;;;;;;;16.73;5.60;;;6.00;99.90;;;;;;5019080;28;20446;-50
2023/12/31 00:59:02;;;;;;;21.67;6.27;;;6.00;99.90;;;;;;5016591;28;20226;-50
2023/12/31 01:01:27;;;;;;;18.93;6.50;;;6.00;99.90;;;;;;5018951;28;20201;-50
2023/12/31 01:03:53;;;;;;;15.53;6.20;;;6.10;1.00;;;;;;5018831;28;20449;-51
2023/12/31 01:06:18;;;;;;;16.67;6.33;;;6.10;99.90;;;;;;5018087;28;20257;-51
2023/12/31 01:08:44;;;;;;;11.63;5.80;;;6.10;99.90;;;;;;5015959;28;20198;-50
2023/12/31 01:11:10;;;;;;;12.67;5.73;;;6.10;99.90;;;;;;5020036;28;20194;-50
2023/12/31 01:13:35;;;;;;;15.70;6.30;;;6.10;99.90;;;;;;5017615;28;20179;-50
2023/12/31 01:16:01;;;;;;;20.30;7.43;;;6.20;1.00;;;;;;5018734;28;20283;-52
2023/12/31 01:18:26;;;;;;;16.83;6.63;;;6.20;99.90;;;;;;5014854;28;20195;-51
2023/12/31 01:20:52;;;;;;;17.23;5.90;;;6.20;1.00;;;;;;5021030;28;20195;-52
2023/12/31 01:23:17;;;;;;;20.83;6.33;;;6.20;1.00;;;;;;5022374;28;20206;-51
2023/12/31 01:25:44;;;;;;;15.53;6.30;;;6.20;99.90;;;;;;5019999;28;20195;-52
2023/12/31 01:28:10;;;;;;;14.00;6.30;;;6.10;99.90;;;;;;5020820;28;20180;-51
2023/12/31 01:30:35;;;;;;;14.57;6.03;;;6.20;99.90;;;;;;5018204;28;20549;-52
2023/12/31 01:33:01;;;;;;;14.43;6.53;;;6.10;1.00;;;;;;5021750;28;20664;-52
2023/12/31 01:35:26;;;;;;;26.50;7.13;;;6.10;10.20;;;;;;5021944;28;20191;-51
2023/12/31 01:37:52;;;;;;;16.57;6.80;;;6.20;1.00;;;;;;5024661;28;20183;-52
2023/12/31 01:40:17;;;;;;;16.43;6.30;;;6.20;1.00;;;;;;5021929;28;20196;-52
2023/12/31 01:42:44;;;;;;;16.23;6.43;;;6.30;1.00;;;;;;5024321;28;20208;-51
2023/12/31 01:45:10;;;;;;;20.40;6.63;;;6.20;99.90;;;;;;5038352;28;20593;-52
2023/12/31 01:47:37;;;;;;;17.20;6.30;;;6.30;99.90;;;;;;5019522;28;20446;-52
2023/12/31 01:50:05;;;;;;;12.90;5.60;;;6.20;15.40;;;;;;5023612;28;20187;-52
2023/12/31 01:52:32;;;;;;;9.73;5.20;;;6.20;1.00;;;;;;5018513;28;20486;-51
2023/12/31 01:55:00;;;;;;;11.87;6.07;;;6.20;1.00;;;;;;5022244;28;20460;-52
2023/12/31 01:57:29;;;;;;;8.23;4.20;;;6.20;1.00;;;;;;5022364;28;20525;-51
2023/12/31 01:59:56;;;;;;;9.30;4.53;;;6.20;1.00;;;;;;5018204;28;20489;-52
2023/12/31 02:02:22;;;;;;;17.83;5.20;;;6.30;1.00;;;;;;5023545;28;20438;-52
2023/12/31 02:04:48;;;;;;;10.10;4.70;;;6.20;1.00;;;;;;5018283;28;20457;-52
2023/12/31 02:07:14;;;;;;;19.47;4.43;;;6.20;1.00;;;;;;5023287;28;21072;-52
2023/12/31 02:09:40;;;;;;;11.93;4.73;;;6.20;1.00;;;;;;5023518;28;20540;-51
2023/12/31 02:12:06;;;;;;;18.37;4.40;;;6.30;1.00;;;;;;5015238;28;20218;-52
2023/12/31 02:14:32;;;;;;;10.60;4.80;;;6.30;1.00;;;;;;5029437;28;20551;-52
2023/12/31 02:16:57;;;;;;;10.93;4.37;;;6.30;1.00;;;;;;5025562;28;20441;-52
2023/12/31 02:19:23;;;;;;;9.53;3.93;;;6.30;1.00;;;;;;5022751;28;20180;-52
2023/12/31 02:21:49;;;;;;;5.40;3.97;;;6.30;99.90;;;;;;5025327;28;21075;-52
2023/12/31 02:24:18;;;;;;;16.50;4.30;;;6.40;99.90;;;;;;5023324;28;20462;-51
2023/12/31 02:26:43;;;;;;;9.07;3.63;;;6.40;99.90;;;;;;5020436;28;20183;-52
2023/12/31 02:29:09;;;;;;;9.23;4.03;;;6.40;29.00;;;;;;5022323;28;20438;-52
2023/12/31 02:31:35;;;;;;;9.63;3.80;;;6.40;26.60;;;;;;5026073;28;20247;-51
2023/12/31 02:34:01;;;;;;;9.30;3.83;;;6.40;1.00;;;;;;5019531;28;20188;-51
2023/12/31 02:36:26;;;;;;;11.37;4.43;;;6.40;1.00;;;;;;5022367;28;20456;-50
2023/12/31 02:38:52;;;;;;;14.97;4.07;;;6.40;1.00;;;;;;5014920;28;20191;-51
2023/12/31 02:41:18;;;;;;;9.13;3.80;;;6.40;1.00;;;;;;5018505;28;20184;-52
2023/12/31 02:43:44;;;;;;;9.97;3.90;;;6.50;1.00;;;;;;5026508;28;20203;-51
2023/12/31 02:46:09;;;;;;;13.87;4.13;;;6.50;99.60;;;;;;5020011;28;20270;-51
2023/12/31 02:48:35;;;;;;;11.33;3.20;;;6.50;1.00;;;;;;5022410;28;21012;-51
2023/12/31 02:51:01;;;;;;;9.80;3.03;;;6.50;1.00;;;;;;5020205;28;20179;-51
2023/12/31 02:53:26;;;;;;;8.83;3.07;;;6.50;1.00;;;;;;5025878;28;20219;-51
2023/12/31 02:55:52;;;;;;;10.67;4.07;;;6.40;1.00;;;;;;5026034;28;20187;-51
2023/12/31 02:58:17;;;;;;;12.33;3.57;;;6.50;75.00;;;;;;5030082;28;20179;-51
2023/12/31 03:00:43;;;;;;;5.87;3.80;;;6.50;1.00;;;;;;5022199;28;20207;-51
2023/12/31 03:03:08;;;;;;;10.73;3.33;;;6.60;1.00;;;;;;5029630;28;20183;-51
2023/12/31 03:05:34;;;;;;;12.23;3.70;;;6.60;1.00;;;;;;5024119;28;20195;-51
2023/12/31 03:08:00;;;;;;;10.67;3.30;;;6.60;1.00;;;;;;5026812;28;20326;-51
2023/12/31 03:10:26;;;;;;;10.23;3.60;;;6.60;99.90;;;;;;5022681;28;20571;-51
2023/12/31 03:12:52;;;;;;;7.93;3.87;;;6.70;99.90;;;;;;5021040;28;20245;-51
2023/12/31 03:15:19;;;;;;;7.60;3.30;;;6.80;99.90;;;;;;5021384;28;20522;-51
2023/12/31 03:17:45;;;;;;;7.97;4.03;;;6.70;99.90;;;;;;5024341;28;20183;-52
2023/12/31 03:20:10;;;;;;;8.97;3.50;;;6.70;99.90;;;;;;5018659;28;20948;-53
2023/12/31 03:22:36;;;;;;;7.23;3.33;;;6.70;99.90;;;;;;5015420;28;20176;-52
2023/12/31 03:25:02;;;;;;;6.20;3.47;;;6.70;99.90;;;;;;5020128;28;20187;-53
2023/12/31 03:27:28;;;;;;;5.63;3.23;;;6.70;99.90;;;;;;5020018;28;20195;-52
2023/12/31 03:29:53;;;;;;;7.63;3.40;;;6.80;99.90;;;;;;5020245;28;20282;-52
2023/12/31 03:32:19;;;;;;;7.93;4.20;;;6.70;99.90;;;;;;5020742;28;20227;-52
2023/12/31 03:34:44;;;;;;;11.13;3.97;;;6.60;1.00;;;;;;5017501;28;20279;-52
2023/12/31 03:37:10;;;;;;;4.37;3.30;;;6.60;1.00;;;;;;5020415;28;20184;-52
2023/12/31 03:39:35;;;;;;;6.47;3.10;;;6.60;99.90;;;;;;5019087;28;20192;-52
2023/12/31 03:42:01;;;;;;;10.17;3.30;;;6.60;99.90;;;;;;5028172;28;20194;-52
2023/12/31 03:44:27;;;;;;;7.23;3.70;;;6.60;99.90;;;;;;5019317;28;20542;-52
2023/12/31 03:46:52;;;;;;;6.93;3.37;;;6.60;99.90;;;;;;5023958;28;20183;-52
2023/12/31 03:49:18;;;;;;;7.57;3.10;;;6.60;99.90;;;;;;5018538;28;20282;-52
2023/12/31 03:51:43;;;;;;;10.67;3.30;;;6.60;1.00;;;;;;5022246;28;20265;-52
2023/12/31 03:54:09;;;;;;;4.57;3.03;;;6.60;1.00;;;;;;5021798;28;20188;-52
2023/12/31 03:56:34;;;;;;;14.50;3.13;;;6.60;1.00;;;;;;5019212;28;20223;-52
2023/12/31 03:59:00;;;;;;;5.10;2.93;;;6.60;1.20;;;;;;5018358;28;20187;-52
2023/12/31 04:01:25;;;;;;;6.30;3.10;;;6.60;99.90;;;;;;5020363;28;20724;-52
2023/12/31 04:03:51;;;;;;;14.77;3.50;;;6.60;99.90;;;;;;5021408;28;20191;-52
2023/12/31 04:06:16;;;;;;;6.87;3.13;;;6.60;99.90;;;;;;5016285;28;20664;-53
2023/12/31 04:08:42;;;;;;;6.60;3.27;;;6.60;1.00;;;;;;5017323;28;20180;-53
2023/12/31 04:11:08;;;;;;;7.07;3.20;;;6.60;1.00;;;;;;5018966;28;20279;-52
2023/12/31 04:13:33;;;;;;;6.73;2.90;;;6.60;1.00;;;;;;5020710;28;20227;-52
2023/12/31 04:15:59;;;;;;;8.53;3.83;;;6.60;1.00;;;;;;5017202;28;20592;-52
2023/12/31 04:18:25;;;;;;;7.07;3.40;;;6.60;1.00;;;;;;5019962;28;20738;-52
2023/12/31 04:20:50;;;;;;;14.37;3.80;;;6.50;1.00;;;;;;5021113;28;20180;-52
2023/12/31 04:23:16;;;;;;;8.57;3.57;;;6.60;1.00;;;;;;5022802;28;20188;-52
2023/12/31 04:25:41;;;;;;;12.13;3.30;;;6.50;1.00;;;;;;5020976;28;20202;-52
2023/12/31 04:28:07;;;;;;;6.30;3.30;;;6.50;99.90;;;;;;5017325;28;20194;-52
2023/12/31 04:30:33;;;;;;;6.40;3.30;;;6.50;99.90;;;;;;5017486;28;20183;-52
2023/12/31 04:32:58;;;;;;;11.93;3.73;;;6.50;99.90;;;;;;5015134;28;20684;-52
2023/12/31 04:35:24;;;;;;;6.77;3.67;;;6.50;99.90;;;;;;5017462;28;20196;-52
2023/12/31 04:37:49;;;;;;;8.07;3.53;;;6.50;1.00;;;;;;5019971;28;20218;-52
2023/12/31 04:40:15;;;;;;;7.10;3.63;;;6.60;66.00;;;;;;5019688;28;20187;-52
2023/12/31 04:42:40;;;;;;;9.30;4.07;;;6.60;1.00;;;;;;5017858;28;20183;-52
2023/12/31 04:45:07;;;;;;;8.57;3.50;;;6.60;1.00;;;;;;5019487;28;20184;-52
2023/12/31 04:47:34;;;;;;;6.70;3.73;;;6.50;13.20;;;;;;5021837;28;20203;-52
2023/12/31 04:50:00;;;;;;;12.47;3.93;;;6.50;99.90;;;;;;5020068;28;20434;-52
2023/12/31 04:52:26;;;;;;;10.63;3.80;;;6.50;1.00;;;;;;5025229;28;20466;-52
2023/12/31 04:54:51;;;;;;;6.73;3.20;;;6.50;1.00;;;;;;5020730;28;20227;-52
2023/12/31 04:57:17;;;;;;;6.20;3.50;;;6.40;99.90;;;;;;5020673;28;20213;-52
2023/12/31 04:59:42;;;;;;;11.10;3.57;;;6.50;99.90;;;;;;5016393;28;20728;-52
2023/12/31 05:02:08;;;;;;;16.83;3.87;;;6.50;99.90;;;;;;5021645;28;20947;-53
2023/12/31 05:04:33;;;;;;;6.07;3.43;;;6.50;87.80;;;;;;5017324;28;20203;-52
2023/12/31 05:06:59;;;;;;;11.03;4.10;;;6.50;99.90;;;;;;5016546;28;20250;-52
2023/12/31 05:09:25;;;;;;;9.17;3.87;;;6.40;1.00;;;;;;5014438;28;20188;-52
2023/12/31 05:11:50;;;;;;;7.63;3.50;;;6.50;1.00;;;;;;5015809;28;20224;-52
2023/12/31 05:14:16;;;;;;;5.30;3.03;;;6.40;99.90;;;;;;5015302;28;20202;-52
2023/12/31 05:16:42;;;;;;;6.20;3.70;;;6.50;1.00;;;;;;5017789;28;20541;-52
2023/12/31 05:19:07;;;;;;;12.50;4.13;;;6.40;34.80;;;;;;5017768;28;20274;-52
2023/12/31 05:21:33;;;;;;;10.67;3.83;;;6.40;1.00;;;;;;5016299;28;20183;-52
2023/12/31 05:24:00;;;;;;;6.63;4.00;;;6.40;99.90;;;;;;5018126;28;20199;-52
2023/12/31 05:26:25;;;;;;;6.40;3.50;;;6.40;1.00;;;;;;5012712;28;20202;-52
2023/12/31 05:28:52;;;;;;;8.17;3.60;;;6.40;1.00;;;;;;5014344;28;20434;-52
2023/12/31 05:31:17;;;;;;;4.13;3.30;;;6.40;1.00;;;;;;5021882;28;20246;-52
2023/12/31 05:33:43;;;;;;;8.03;3.50;;;6.40;99.90;;;;;;5019425;28;20439;-52
2023/12/31 05:36:09;;;;;;;7.30;3.23;;;6.30;1.00;;;;;;5017680;28;20198;-52
2023/12/31 05:38:35;;;;;;;10.77;3.73;;;6.40;99.90;;;;;;5014027;28;20180;-52
2023/12/31 05:41:00;;;;;;;12.90;3.50;;;6.40;99.90;;;;;;5017176;28;20198;-52
2023/12/31 05:43:26;;;;;;;9.10;2.90;;;6.40;99.90;;;;;;5014182;28;20441;-52
2023/12/31 05:45:51;;;;;;;5.67;2.80;;;6.30;99.90;;;;;;5017735;28;20225;-52
2023/12/31 05:48:17;;;;;;;6.00;3.43;;;6.30;99.90;;;;;;5021094;28;20195;-52
2023/12/31 05:50:43;;;;;;;9.70;3.33;;;6.30;99.90;;;;;;5021034;28;20184;-52
2023/12/31 05:53:08;;;;;;;10.47;3.37;;;6.30;1.00;;;;;;5022458;28;20478;-51
2023/12/31 05:55:34;;;;;;;2.00;1.37;;;6.30;1.00;;;;;;5020695;28;20686;-52
2023/12/31 05:57:59;;;;;;;8.97;3.07;;;6.20;1.00;;;;;;5018298;28;20656;-52
2023/12/31 06:00:25;;;;;;;9.30;3.40;;;6.30;99.90;;;;;;5018989;28;20187;-52
2023/12/31 06:02:50;;;;;;;6.70;3.27;;;6.30;99.90;;;;;;5020289;28;20188;-51
2023/12/31 06:05:17;;;;;;;6.47;3.00;;;6.30;99.90;;;;;;5017291;28;20265;-52
2023/12/31 06:07:43;;;;;;;6.57;3.57;;;6.30;27.30;;;;;;5017422;28;20231;-52
2023/12/31 06:10:09;;;;;;;6.50;3.17;;;6.30;1.00;;;;;;5023054;28;21011;-52
2023/12/31 06:12:34;;;;;;;9.57;3.40;;;6.40;1.00;;;;;;5018653;28;20506;-52
2023/12/31 06:15:00;;;;;;;5.13;3.77;;;6.50;99.90;;;;;;5021056;28;20274;-52
2023/12/31 06:17:27;;;;;;;5.93;3.27;;;6.30;1.00;;;;;;5022001;28;20184;-52
2023/12/31 06:19:52;;;;;;;8.00;2.60;;;6.20;1.00;;;;;;5019142;28;20450;-52
2023/12/31 06:22:18;;;;;;;7.23;2.57;;;6.30;1.00;;;;;;5022542;28;20439;-52
2023/12/31 06:24:44;;;;;;;7.63;3.00;;;6.20;99.90;;;;;;5021157;28;20191;-52
2023/12/31 06:27:09;;;;;;;5.37;3.53;;;6.20;38.60;;;;;;5023097;28;20214;-52
2023/12/31 06:29:35;;;;;;;9.33;3.03;;;6.20;1.00;;;;;;5023518;28;20607;-52
2023/12/31 06:32:00;;;;;;;8.47;3.30;;;6.20;99.90;;;;;;5025241;28;20215;-52
2023/12/31 06:34:26;;;;;;;10.23;3.10;;;6.10;1.00;;;;;;5016004;28;20688;-52
2023/12/31 06:36:52;;;;;;;13.50;4.13;;;6.20;99.90;;;;;;5021632;28;20262;-52
2023/12/31 06:39:17;;;;;;;12.50;3.30;;;6.20;99.90;;;;;;5019562;28;20181;-52
2023/12/31 06:41:43;;;;;;;9.50;3.20;;;6.10;99.90;;;;;;5022993;28;20187;-52
2023/12/31 06:44:08;;;;;;;7.47;3.80;;;6.10;99.90;;;;;;5021549;28;20187;-52
2023/12/31 06:46:34;;;;;;;6.93;3.20;;;6.10;99.90;;;;;;5023346;28;20591;-52
2023/12/31 06:48:59;;;;;;;10.23;4.50;;;6.10;99.90;;;;;;5023315;28;20199;-52
2023/12/31 06:51:25;;;;;;;11.23;3.40;;;6.10;99.90;;;;;;5020978;28;20259;-52
2023/12/31 06:53:51;;;;;;;8.03;3.90;;;6.00;99.90;;;;;;5018320;28;20191;-52
2023/12/31 06:56:18;;;;;;;6.67;4.00;;;6.00;99.90;;;;;;5019962;28;20179;-53
2023/12/31 06:58:43;;;;;;;10.77;3.90;;;6.00;1.00;;;;;;5022909;28;20196;-52
2023/12/31 07:01:09;;;;;;;9.13;3.17;;;6.10;1.00;;;;;;5018093;28;20469;-52
2023/12/31 07:03:34;;;;;;;5.97;3.70;;;6.10;1.00;;;;;;5026927;28;20242;-52
2023/12/31 07:06:00;;;;;;;6.63;3.77;;;6.00;99.90;;;;;;5019566;28;20208;-52
2023/12/31 07:08:26;;;;;;;6.53;3.87;;;5.90;1.00;;;;;;5017860;28;20245;-52
2023/12/31 07:10:52;;;;;;;8.80;3.90;;;5.90;66.90;;;;;;5017735;28;20674;-52
2023/12/31 07:13:18;;;;;;;5.47;3.07;;;6.00;1.00;;;;;;5023084;28;20663;-52
2023/12/31 07:15:44;;;;;;;9.23;3.70;;;5.90;1.00;;;;;;5014610;28;20446;-52
2023/12/31 07:18:10;;;;;;;4.07;3.23;;;5.90;99.90;;;;;;5015314;28;20446;-52
2023/12/31 07:20:35;;;;;;;14.47;3.53;;;5.90;99.90;;;;;;5022925;28;20195;-52
2023/12/31 07:23:01;;;;;;;4.53;3.47;;;5.90;1.00;;;;;;5018804;28;20185;-52
2023/12/31 07:25:28;;;;;;;6.63;3.47;;;5.90;1.00;;;;;;5024997;28;20655;-51
2023/12/31 07:27:54;;;;;;;6.90;3.63;;;6.00;1.00;;;;;;5021028;28;20275;-52
2023/12/31 07:30:20;;;;;;;7.03;3.40;;;6.00;99.90;;;;;;5017834;28;20431;-52
2023/12/31 07:32:46;;;;;;;4.63;3.23;;;5.90;99.90;;;;;;5020925;28;20887;-52
2023/12/31 07:35:11;;;;;;;5.70;3.60;;;5.90;99.90;;;;;;5014902;28;20176;-52
2023/12/31 07:37:40;;;;;;;9.07;3.90;;;6.00;99.90;;;;;;5021353;28;20198;-52
2023/12/31 07:40:10;;;;;;;4.90;3.70;;;6.00;99.90;;;;;;5018633;28;20660;-51
2023/12/31 07:42:37;;;;;;;5.50;3.43;;;6.00;1.00;;;;;;5019636;28;20446;-52
2023/12/31 07:45:04;;;;;;;5.70;2.60;;;6.00;99.90;;;;;;5022597;28;20450;-52
2023/12/31 07:47:31;;;;;;;5.50;3.40;;;6.00;99.90;;;;;;5024929;28;20456;-51
2023/12/31 07:49:57;;;;;;;14.83;4.17;;;6.00;1.00;;;;;;5018382;28;20466;-51
2023/12/31 07:52:25;;;;;;;9.60;4.00;;;6.00;1.00;;;;;;5019131;28;20466;-53
2023/12/31 07:54:50;;;;;;;8.50;3.17;;;6.00;1.00;;;;;;5019820;28;20192;-50
2023/12/31 07:57:16;;;;;;;10.33;3.70;;;6.00;1.00;;;;;;5015682;28;20442;-50
2023/12/31 07:59:42;;;;;;;6.20;2.90;;;6.00;99.90;;;;;;5021433;28;20678;-50
2023/12/31 08:02:08;;;;;;;6.00;3.10;;;6.00;99.90;;;;;;5014725;28;20184;-51
2023/12/31 08:04:34;;;;;;;9.33;3.60;;;6.00;1.00;;;;;;5023229;28;20426;-51
2023/12/31 08:06:59;;;;;;;6.40;3.40;;;6.00;1.00;;;;;;5016253;28;20346;-51
2023/12/31 08:09:25;;;;;;;5.57;3.70;;;6.00;1.00;;;;;;5023530;28;20187;-51
2023/12/31 08:11:50;;;;;;;8.37;3.37;;;6.10;99.90;;;;;;5019538;28;20223;-52
2023/12/31 08:14:16;;;;;;;6.97;2.83;;;6.10;99.90;;;;;;5018927;28;20216;-53
2023/12/31 08:16:41;;;;;;;8.33;3.60;;;6.10;99.90;;;;;;5020417;28;20662;-53
2023/12/31 08:19:08;;;;;;;10.57;4.77;;;6.10;1.00;;;;;;5020079;28;20719;-53
2023/12/31 08:21:34;;;;;;;7.43;4.03;;;6.10;99.90;;;;;;5020665;28;20441;-52
2023/12/31 08:23:59;;;;;;;4.57;3.00;;;6.00;1.00;;;;;;5018839;28;20191;-52
2023/12/31 08:26:25;;;;;;;6.53;3.23;;;6.10;1.00;;;;;;5024448;28;20179;-52
2023/12/31 08:28:51;;;;;;;7.20;3.17;;;6.10;1.00;;;;;;5018350;28;20206;-52
2023/12/31 08:31:17;;;;;;;4.60;3.13;;;6.10;1.00;;;;;;5023515;28;20180;-51
2023/12/31 08:33:43;;;;;;;13.93;3.70;;;6.00;99.90;;;;;;5026965;28;20267;-51
2023/12/31 08:36:08;;;;;;;5.57;3.20;;;6.10;99.90;;;;;;5031676;28;20848;-52
2023/12/31 08:38:34;;;;;;;6.33;3.40;;;6.00;1.00;;;;;;5029265;28;20442;-51
2023/12/31 08:41:00;;;;;;;5.67;2.93;;;6.00;1.00;;;;;;5024126;28;20183;-52
2023/12/31 08:43:26;;;;;;;5.63;2.73;;;6.00;6.90;;;;;;5028853;28;20225;-52
2023/12/31 08:45:52;;;;;;;10.50;3.50;;;6.10;1.00;;;;;;5035899;28;20532;-52
2023/12/31 08:48:18;;;;;;;4.70;2.97;;;6.10;1.00;;;;;;5020023;28;20427;-53
2023/12/31 08:50:44;;;;;;;6.63;3.33;;;6.10;99.90;;;;;;5017424;28;20825;-52
2023/12/31 08:53:10;;;;;;;7.60;3.20;;;6.10;99.90;;;;;;5017450;28;20234;-53
2023/12/31 08:55:36;;;;;;;6.43;3.20;;;6.10;99.90;;;;;;5018186;28;20986;-52
2023/12/31 08:58:01;;;;;;;12.97;3.80;;;6.00;59.90;;;;;;5021765;28;20180;-53
2023/12/31 09:00:27;;;;;;;9.27;3.33;;;6.10;99.90;;;;;;5021851;28;20219;-52
2023/12/31 09:02:52;;;;;;;7.20;3.50;;;6.10;1.00;;;;;;5019079;28;20188;-52
2023/12/31 09:05:18;;;;;;;6.77;3.90;;;6.10;28.90;;;;;;5018740;28;20188;-53
2023/12/31 09:07:44;;;;;;;5.50;3.30;;;6.20;1.00;;;;;;5022310;28;23231;-52
2023/12/31 09:10:10;;;;;;;6.47;3.70;;;6.30;1.00;;;;;;5022184;28;20702;-52
2023/12/31 09:12:35;;;;;;;8.87;3.77;;;6.20;99.90;;;;;;5018913;28;20568;-52
2023/12/31 09:15:01;;;;;;;4.20;3.20;;;6.20;9.50;;;;;;5024045;28;20187;-53
2023/12/31 09:17:26;;;;;;;7.77;4.40;;;6.20;1.00;;;;;;5019966;28;20608;-52
2023/12/31 09:19:58;;;;;;;5.60;3.40;;;6.20;1.00;;;;;;5017137;28;20184;-52
2023/12/31 09:22:23;;;;;;;6.97;3.40;;;6.20;1.00;;;;;;5018381;28;20266;-52
2023/12/31 09:24:51;;;;;;;7.70;3.67;;;6.20;1.00;;;;;;5017906;28;20442;-52
2023/12/31 09:27:18;;;;;;;6.00;3.90;;;6.30;1.00;;;;;;5021785;28;20304;-53
2023/12/31 09:29:44;;;;;;;6.23;3.73;;;6.30;1.00;;;;;;5021381;28;20965;-52
2023/12/31 09:32:10;;;;;;;4.27;3.27;;;6.20;1.00;;;;;;5020249;28;20959;-51
2023/12/31 09:34:35;;;;;;;7.13;3.90;;;6.30;1.00;;;;;;5019627;28;20441;-50
2023/12/31 09:37:01;;;;;;;7.10;3.57;;;6.30;1.00;;;;;;5016563;28;20191;-51
2023/12/31 09:39:27;;;;;;;4.40;3.27;;;6.30;99.90;;;;;;5021382;28;20190;-51
2023/12/31 09:41:55;;;;;;;6.10;3.77;;;6.40;99.90;;;;;;5024897;28;20429;-51
2023/12/31 09:44:21;;;;;;;11.17;3.90;;;6.40;99.90;;;;;;5025936;28;20192;-51
2023/12/31 09:47:06;;;;;;;6.23;3.80;;;6.40;79.70;;;;;;5027026;28;20495;-51
2023/12/31 09:49:36;;;;;;;13.07;4.27;;;6.40;75.00;;;;;;5022647;28;20287;-51
2023/12/31 09:52:07;;;;;;;8.27;3.83;;;6.50;1.00;;;;;;5020889;28;20520;-52
2023/12/31 09:54:33;;;;;;;6.90;3.57;;;6.50;1.00;;;;;;5021839;28;20512;-50
2023/12/31 09:57:00;;;;;;;5.50;3.40;;;6.40;1.00;;;;;;5021259;28;20468;-51
2023/12/31 09:59:27;;;;;;;7.23;3.40;;;6.50;1.00;;;;;;5026164;28;20450;-50
2023/12/31 10:02:00;;;;;;;9.43;3.53;;;6.50;99.90;;;;;;5025150;28;20432;-51
2023/12/31 10:04:26;;;;;;;4.40;3.27;;;6.50;1.00;;;;;;5023560;28;20438;-51
2023/12/31 10:06:53;;;;;;;5.87;3.60;;;6.50;99.90;;;;;;5026140;28;20469;-51
2023/12/31 10:09:20;;;;;;;7.37;3.67;;;6.60;99.90;;;;;;5024478;28;20489;-50
2023/12/31 10:11:46;;;;;;;9.03;3.60;;;6.60;99.90;;;;;;5023357;28;20442;-50
2023/12/31 10:14:13;;;;;;;5.37;3.47;;;6.60;99.90;;;;;;5023288;28;21159;-51
2023/12/31 10:16:43;;;;;;;1.83;1.43;;;6.60;99.90;;;;;;5021357;28;20444;-51
2023/12/31 10:19:13;;;;;;;7.43;3.50;;;6.60;99.90;;;;;;5028348;28;20913;-50
2023/12/31 10:21:40;;;;;;;11.60;4.47;;;6.60;99.90;;;;;;5022954;28;20449;-51
2023/12/31 10:24:06;;;;;;;7.50;4.10;;;6.60;99.90;;;;;;5024894;28;20449;-50
2023/12/31 10:26:33;;;;;;;5.43;3.37;;;6.60;98.80;;;;;;5017031;28;20434;-50
2023/12/31 10:28:59;;;;;;;7.30;3.70;;;6.60;99.90;;;;;;5020393;28;20221;-50
2023/12/31 10:31:25;;;;;;;5.87;3.70;;;6.70;93.10;;;;;;5024363;28;20466;-50
2023/12/31 10:33:51;;;;;;;5.30;3.40;;;6.70;84.30;;;;;;5024011;28;20236;-50
2023/12/31 10:36:23;;;;;;;4.63;3.53;;;6.70;57.40;;;;;;5022919;28;20437;-51
2023/12/31 10:38:50;;;;;;;5.43;3.23;;;6.80;1.00;;;;;;5022659;28;20643;-52
2023/12/31 10:41:20;;;;;;;7.83;3.10;;;6.80;1.00;;;;;;5020950;28;20437;-51
2023/12/31 10:43:47;;;;;;;7.53;3.53;;;6.80;1.00;;;;;;5025052;28;20474;-51
2023/12/31 10:46:14;;;;;;;6.37;3.53;;;6.80;1.00;;;;;;5033987;28;20464;-51
2023/12/31 10:48:49;;;;;;;5.90;3.40;;;6.80;1.00;;;;;;5025234;28;20437;-51
2023/12/31 10:51:22;;;;;;;4.53;3.30;;;6.80;1.00;;;;;;5020441;28;20829;-52
2023/12/31 10:53:50;;;;;;;8.67;4.03;;;6.80;1.00;;;;;;5019018;28;20898;-52
2023/12/31 10:56:17;;;;;;;7.40;3.37;;;6.80;95.00;;;;;;5020935;28;20446;-51
2023/12/31 10:58:43;;;;;;;7.20;3.57;;;6.80;99.90;;;;;;5018356;28;21000;-51
2023/12/31 11:01:10;;;;;;;6.80;4.07;;;6.90;99.90;;;;;;5022974;28;20446;-51
2023/12/31 11:03:37;;;;;;;10.80;4.37;;;6.90;98.70;;;;;;5017777;28;20431;-52
2023/12/31 11:06:04;;;;;;;3.67;3.20;;;6.90;97.00;;;;;;5017790;28;20809;-51
2023/12/31 11:08:30;;;;;;;4.17;3.00;;;6.90;1.00;;;;;;5018629;28;20508;-51
2023/12/31 11:10:56;;;;;;;7.13;3.50;;;6.90;66.30;;;;;;5022254;28;20441;-51
2023/12/31 11:13:25;;;;;;;4.53;3.33;;;6.90;99.90;;;;;;5018821;28;20576;-51
2023/12/31 11:15:53;;;;;;;7.70;3.80;;;6.90;99.90;;;;;;5022920;28;20535;-51
2023/12/31 11:18:53;;;;;;;4.70;3.20;;;7.00;96.10;;;;;;5017062;28;20447;-51
2023/12/31 11:21:48;;;;;;;9.40;3.07;;;7.00;1.00;;;;;;5022042;28;20431;-51
2023/12/31 11:24:18;;;;;;;12.10;3.30;;;7.10;1.00;;;;;;5027226;28;20426;-51
2023/12/31 11:26:44;;;;;;;6.40;3.53;;;7.20;1.00;;;;;;5027473;28;20434;-51
2023/12/31 11:29:12;;;;;;;8.60;3.47;;;7.30;1.00;;;;;;5023466;28;20442;-51
2023/12/31 11:31:42;;;;;;;9.45;3.63;;;7.30;99.90;;;;;;5019920;28;20412;-50
2023/12/31 11:34:10;;;;;;;7.50;3.40;;;7.30;99.90;;;;;;5019933;28;20195;-50
2023/12/31 11:36:36;;;;;;;7.27;3.20;;;7.40;99.90;;;;;;5021611;28;20433;-50
2023/12/31 11:39:14;;;;;;;8.13;3.40;;;7.50;99.90;;;;;;5017928;28;20803;-51
2023/12/31 11:41:45;;;;;;;7.40;3.90;;;7.60;99.90;;;;;;5022790;28;20438;-52
2023/12/31 11:44:31;;;;;;;8.63;5.20;;;7.70;99.90;;;;;;5017237;28;20953;-53
2023/12/31 11:46:58;;;;;;;10.10;4.53;;;7.60;99.90;;;;;;5015622;28;20450;-51
2023/12/31 11:49:25;;;;;;;8.30;4.70;;;7.80;99.90;;;;;;5020162;28;20453;-52
2023/12/31 11:51:56;;;;;;;11.83;4.93;;;7.80;82.40;;;;;;5021197;28;20448;-52
2023/12/31 11:54:24;;;;;;;6.93;3.90;;;7.90;44.60;;;;;;5019914;28;20837;-51
2023/12/31 11:56:51;;;;;;;9.97;4.50;;;8.00;19.90;;;;;;5019340;28;20439;-52
2023/12/31 11:59:17;;;;;;;10.03;4.30;;;8.00;15.50;;;;;;5017483;28;20438;-52
2023/12/31 12:01:44;;;;;;;6.70;4.77;;;8.10;8.10;;;;;;5027090;28;20533;-52
2023/12/31 12:04:11;;;;;;;5.73;4.03;;;8.30;1.00;;;;;;5024231;28;20440;-52
2023/12/31 12:06:36;;;;;;;7.73;3.40;;;8.80;1.00;;;;;;5020670;28;21128;-52
2023/12/31 12:09:03;;;;;;;7.10;3.57;;;9.30;1.00;;;;;;5024770;28;20523;-53
2023/12/31 12:11:28;;;;;;;7.03;3.10;;;9.50;1.00;;;;;;5024413;28;20198;-52
2023/12/31 12:13:54;;;;;;;7.60;3.90;;;9.60;1.00;;;;;;5014796;28;20844;-52
2023/12/31 12:16:20;;;;;;;4.63;2.80;;;9.50;1.00;;;;;;5018866;28;20192;-52
2023/12/31 12:18:45;;;;;;;7.37;3.20;;;9.50;1.00;;;;;;5017663;28;20718;-52
2023/12/31 12:21:11;;;;;;;6.67;3.63;;;9.50;1.00;;;;;;5024714;28;20580;-50
2023/12/31 12:23:37;;;;;;;5.70;2.80;;;9.50;1.00;;;;;;5024470;28;20677;-50
2023/12/31 12:26:03;;;;;;;6.03;3.70;;;9.60;1.00;;;;;;5034165;28;20196;-51
2023/12/31 12:28:30;;;;;;;8.63;1.07;;;9.20;1.00;;;;;;5030813;28;20326;-51
2023/12/31 12:30:57;;;;;;;3.43;2.83;;;9.00;1.00;;;;;;5030628;28;20414;-51
2023/12/31 12:33:23;;;;;;;6.97;3.70;;;8.80;1.00;;;;;;5030415;28;20465;-51
2023/12/31 12:35:49;;;;;;;8.20;3.40;;;8.60;1.00;;;;;;5034042;28;20422;-51
2023/12/31 12:38:14;;;;;;;5.25;3.28;;;8.50;1.00;;;;;;5028180;28;20405;-51
2023/12/31 12:40:41;;;;;;;6.30;3.43;;;8.50;1.00;;;;;;5028668;28;20717;-51
2023/12/31 12:43:07;;;;;;;15.93;3.53;;;8.40;1.00;;;;;;5028475;28;20187;-52
2023/12/31 12:45:32;;;;;;;5.60;3.60;;;8.30;1.00;;;;;;5030712;28;20441;-52
2023/12/31 12:48:02;;;;;;;3.53;2.63;;;8.20;1.00;;;;;;5021934;28;20178;-52
2023/12/31 12:50:30;;;;;;;4.90;3.43;;;8.20;1.00;;;;;;5022284;28;20184;-52
2023/12/31 12:52:56;;;;;;;6.60;3.60;;;8.20;1.00;;;;;;5024024;28;21011;-52